Time;durP1;ratioP1;P1;durP2;ratioP2;P2;SDS_P1;SDS_P2;PMS_P1;PMS_P2;Temp;Humidity;BMP_temperature;BMP_pressure;BME280_temperature;BME280_humidity;BME280_pressure;Samples;Min_cycle;Max_cycle;Signal;HPM_P1;HPM_P2
2023/03/02 00:01:08;;;;;;;39.90;18.00;;;;;;;-0.11;100.00;101446.83;106561;1286;59230;-83
2023/03/02 00:03:39;;;;;;;42.30;19.20;;;;;;;-0.17;100.00;101449.09;106504;1286;72414;-83
2023/03/02 00:06:06;;;;;;;36.30;17.00;;;;;;;-0.24;100.00;101446.42;106536;1286;73335;-83
2023/03/02 00:08:32;;;;;;;40.40;18.00;;;;;;;-0.29;100.00;101442.39;106516;1286;61729;-83
2023/03/02 00:11:00;;;;;;;42.00;18.20;;;;;;;-0.34;100.00;101441.59;106542;1286;59090;-83
2023/03/02 00:13:27;;;;;;;37.60;17.20;;;;;;;-0.41;100.00;101440.21;106556;1288;73406;-83
2023/03/02 00:15:53;;;;;;;38.20;17.10;;;;;;;-0.51;100.00;101434.86;106828;1279;74338;-82
2023/03/02 00:18:18;;;;;;;41.70;18.00;;;;;;;-0.57;100.00;101432.91;107435;1279;59585;-83
2023/03/02 00:20:44;;;;;;;38.10;16.50;;;;;;;-0.61;100.00;101432.02;107281;1279;59057;-83
2023/03/02 00:23:09;;;;;;;36.20;17.20;;;;;;;-0.67;100.00;101431.52;107285;1279;59281;-83
2023/03/02 00:25:35;;;;;;;37.80;17.70;;;;;;;-0.73;100.00;101439.62;107216;1280;59191;-83
2023/03/02 00:28:00;;;;;;;38.90;17.10;;;;;;;-0.81;100.00;101441.14;107462;1279;59056;-83
2023/03/02 00:30:26;;;;;;;36.20;17.60;;;;;;;-0.87;100.00;101443.02;107481;1279;59191;-83
2023/03/02 00:32:51;;;;;;;36.40;17.30;;;;;;;-0.91;100.00;101445.05;107440;1279;58977;-83
2023/03/02 00:35:17;;;;;;;38.00;17.70;;;;;;;-0.95;100.00;101446.31;107466;1279;59570;-83
2023/03/02 00:37:42;;;;;;;35.60;15.80;;;;;;;-0.99;100.00;101448.13;107524;1278;59039;-82
2023/03/02 00:40:09;;;;;;;43.80;17.30;;;;;;;-1.04;100.00;101444.61;107464;1279;59031;-84
2023/03/02 00:42:38;;;;;;;37.60;17.80;;;;;;;-1.08;100.00;101443.88;107118;1281;59144;-82
2023/03/02 00:45:04;;;;;;;36.70;17.00;;;;;;;-1.12;100.00;101446.70;107078;1281;75356;-82
2023/03/02 00:47:34;;;;;;;39.90;17.50;;;;;;;-1.16;100.00;101447.83;106992;1281;75211;-83
2023/03/02 00:50:00;;;;;;;41.00;18.20;;;;;;;-1.18;100.00;101447.05;107047;1282;73522;-83
2023/03/02 00:52:25;;;;;;;35.80;16.40;;;;;;;-1.23;100.00;101449.12;107011;1283;59111;-83
2023/03/02 00:54:51;;;;;;;36.90;16.80;;;;;;;-1.24;100.00;101451.01;106392;1283;59283;-82
2023/03/02 00:57:16;;;;;;;37.30;16.40;;;;;;;-1.28;100.00;101447.70;107024;1283;59251;-82
2023/03/02 00:59:42;;;;;;;38.40;17.50;;;;;;;-1.31;100.00;101444.54;106734;1283;59116;-82
2023/03/02 01:02:07;;;;;;;38.80;17.40;;;;;;;-1.33;100.00;101444.60;107065;1283;59136;-82
2023/03/02 01:04:37;;;;;;;43.00;17.70;;;;;;;-1.38;100.00;101444.72;107015;1283;59045;-82
2023/03/02 01:07:05;;;;;;;38.10;17.50;;;;;;;-1.40;100.00;101442.64;106989;1283;75375;-82
2023/03/02 01:09:31;;;;;;;39.40;16.60;;;;;;;-1.43;100.00;101442.79;106724;1283;73349;-82
2023/03/02 01:11:57;;;;;;;40.90;16.60;;;;;;;-1.45;100.00;101444.52;106992;1283;59081;-82
2023/03/02 01:14:23;;;;;;;41.60;17.00;;;;;;;-1.47;100.00;101444.36;107143;1282;59103;-82
2023/03/02 01:16:49;;;;;;;36.30;16.20;;;;;;;-1.48;100.00;101441.18;107172;1282;59069;-82
2023/03/02 01:19:14;;;;;;;35.10;15.70;;;;;;;-1.52;100.00;101439.45;107196;1282;59053;-82
2023/03/02 01:21:40;;;;;;;34.80;15.50;;;;;;;-1.56;100.00;101437.95;107251;1282;59593;-83
2023/03/02 01:24:08;;;;;;;34.60;15.30;;;;;;;-1.62;100.00;101440.33;107166;1281;62837;-82
2023/03/02 01:26:34;;;;;;;37.10;15.30;;;;;;;-1.67;100.00;101444.35;106725;1283;60257;-82
2023/03/02 01:28:59;;;;;;;31.80;14.40;;;;;;;-1.71;100.00;101441.98;107040;1283;59292;-83
2023/03/02 01:31:26;;;;;;;31.30;15.00;;;;;;;-1.77;100.00;101442.58;107451;1278;59529;-83
2023/03/02 01:33:52;;;;;;;32.10;13.70;;;;;;;-1.84;100.00;101441.16;107137;1278;59053;-82
2023/03/02 01:36:18;;;;;;;29.80;13.70;;;;;;;-1.90;100.00;101447.46;107455;1278;58974;-82
2023/03/02 01:38:44;;;;;;;34.90;13.80;;;;;;;-1.91;100.00;101444.74;107089;1279;59197;-82
2023/03/02 01:41:10;;;;;;;31.60;14.00;;;;;;;-1.91;100.00;101447.71;107471;1279;59072;-82
2023/03/02 01:43:36;;;;;;;34.60;14.80;;;;;;;-1.94;100.00;101446.08;107281;1281;59333;-83
2023/03/02 01:46:19;;;;;;;33.30;14.80;;;;;;;-1.97;100.00;101442.40;107380;1278;62043;-82
2023/03/02 01:48:57;;;;;;;36.50;15.90;;;;;;;-1.98;100.00;101447.55;107497;1278;60131;-83
2023/03/02 01:51:25;;;;;;;36.60;14.50;;;;;;;-2.01;100.00;101447.36;107487;1278;74144;-82
2023/03/02 01:53:57;;;;;;;33.90;14.40;;;;;;;-2.05;100.00;101449.35;107433;1279;74106;-82
2023/03/02 01:56:29;;;;;;;28.60;12.80;;;;;;;-2.12;100.00;101443.64;107457;1279;72391;-81
2023/03/02 01:59:01;;;;;;;31.80;15.30;;;;;;;-2.18;100.00;101442.54;107488;1278;62609;-82
2023/03/02 02:01:33;;;;;;;38.80;15.60;;;;;;;-2.23;100.00;101441.00;107458;1282;60065;-83
2023/03/02 02:04:00;;;;;;;34.60;16.50;;;;;;;-2.29;100.00;101443.32;107433;1278;75432;-82
2023/03/02 02:06:41;;;;;;;37.10;16.60;;;;;;;-2.35;100.00;101442.48;107456;1278;74457;-83
2023/03/02 02:09:11;;;;;;;35.70;15.80;;;;;;;-2.40;100.00;101443.71;107426;1279;72705;-82
2023/03/02 02:11:37;;;;;;;33.50;16.00;;;;;;;-2.45;100.00;101445.85;107444;1278;61756;-83
2023/03/02 02:14:03;;;;;;;34.30;16.00;;;;;;;-2.51;100.00;101448.34;107438;1278;59046;-82
2023/03/02 02:16:33;;;;;;;36.80;15.60;;;;;;;-2.57;100.00;101449.48;107459;1278;59476;-83
2023/03/02 02:19:00;;;;;;;38.60;15.50;;;;;;;-2.63;100.00;101447.29;107475;1278;74025;-82
2023/03/02 02:21:27;;;;;;;32.80;15.50;;;;;;;-2.70;100.00;101449.48;107411;1278;72386;-83
2023/03/02 02:24:00;;;;;;;32.50;14.90;;;;;;;-2.77;100.00;101443.29;107093;1279;60477;-82
2023/03/02 02:26:33;;;;;;;40.20;17.00;;;;;;;-2.84;100.00;101441.88;107347;1280;61046;-83
2023/03/02 02:29:11;;;;;;;44.20;18.60;;;;;;;-2.88;100.00;101441.27;107378;1279;74463;-82
2023/03/02 02:31:39;;;;;;;35.60;16.00;;;;;;;-2.93;100.00;101443.54;107286;1279;73572;-83
2023/03/02 02:34:21;;;;;;;40.80;17.80;;;;;;;-2.97;100.00;101436.90;107331;1279;73482;-82
2023/03/02 02:36:49;;;;;;;45.20;18.60;;;;;;;-3.00;100.00;101435.52;107316;1279;60916;-82
2023/03/02 02:39:29;;;;;;;39.70;16.70;;;;;;;-3.03;100.00;101440.81;107275;1280;61092;-82
2023/03/02 02:41:59;;;;;;;42.50;17.40;;;;;;;-3.09;100.00;101436.98;107309;1280;75298;-83
2023/03/02 02:44:25;;;;;;;38.10;16.90;;;;;;;-3.13;100.00;101440.00;107318;1279;73333;-83
2023/03/02 02:46:50;;;;;;;40.70;17.50;;;;;;;-3.17;100.00;101442.70;107255;1279;59387;-83
2023/03/02 02:49:27;;;;;;;40.30;17.60;;;;;;;-3.21;100.00;101449.02;107139;1279;59108;-83
2023/03/02 02:51:53;;;;;;;44.50;17.80;;;;;;;-3.24;100.00;101447.67;107252;1279;60124;-82
2023/03/02 02:54:19;;;;;;;43.90;18.60;;;;;;;-3.24;100.00;101448.23;107341;1279;59002;-82
2023/03/02 02:56:47;;;;;;;45.90;18.60;;;;;;;-3.26;100.00;101446.39;107368;1279;59131;-82
2023/03/02 02:59:27;;;;;;;48.10;19.00;;;;;;;-3.30;100.00;101448.66;106929;1279;73691;-82
2023/03/02 03:01:54;;;;;;;53.10;20.10;;;;;;;-3.32;100.00;101453.08;107330;1279;62665;-82
2023/03/02 03:04:24;;;;;;;45.90;19.10;;;;;;;-3.34;100.00;101447.99;107325;1279;60086;-82
2023/03/02 03:06:53;;;;;;;45.30;19.30;;;;;;;-3.37;100.00;101443.89;107371;1279;74528;-82
2023/03/02 03:09:19;;;;;;;49.20;21.20;;;;;;;-3.38;100.00;101447.57;107363;1279;74475;-83
2023/03/02 03:11:48;;;;;;;44.60;20.20;;;;;;;-3.40;100.00;101445.77;107315;1279;59261;-82
2023/03/02 03:14:35;;;;;;;55.10;20.00;;;;;;;-3.42;100.00;101444.90;107329;1279;61610;-82
2023/03/02 03:17:00;;;;;;;49.40;19.60;;;;;;;-3.45;100.00;101443.28;107329;1280;60106;-82
2023/03/02 03:19:31;;;;;;;54.50;21.90;;;;;;;-3.47;100.00;101448.53;107340;1279;59019;-82
2023/03/02 03:22:01;;;;;;;53.10;21.30;;;;;;;-3.48;100.00;101449.91;107308;1279;73535;-83
2023/03/02 03:24:29;;;;;;;53.90;21.80;;;;;;;-3.49;100.00;101455.28;107392;1278;73384;-82
2023/03/02 03:26:55;;;;;;;49.90;21.00;;;;;;;-3.50;100.00;101455.84;107396;1278;60762;-81
2023/03/02 03:29:23;;;;;;;49.80;20.80;;;;;;;-3.50;100.00;101454.14;107482;1278;60015;-82
2023/03/02 03:31:54;;;;;;;50.50;21.00;;;;;;;-3.51;100.00;101458.09;107449;1278;75614;-82
2023/03/02 03:34:20;;;;;;;48.50;20.40;;;;;;;-3.50;100.00;101453.25;107498;1278;73506;-82
2023/03/02 03:36:46;;;;;;;52.10;20.80;;;;;;;-3.50;100.00;101449.90;107484;1278;59043;-82
2023/03/02 03:39:13;;;;;;;55.90;21.90;;;;;;;-3.52;100.00;101456.75;107264;1278;59085;-82
2023/03/02 03:41:39;;;;;;;53.40;22.30;;;;;;;-3.53;100.00;101450.14;107452;1279;59056;-82
2023/03/02 03:44:05;;;;;;;52.50;21.40;;;;;;;-3.53;100.00;101450.89;107475;1278;59005;-82
2023/03/02 03:46:31;;;;;;;55.00;20.70;;;;;;;-3.55;100.00;101449.15;107300;1279;59039;-81
2023/03/02 03:48:56;;;;;;;54.00;22.10;;;;;;;-3.57;100.00;101454.48;107471;1278;59041;-82
2023/03/02 03:51:22;;;;;;;55.50;21.60;;;;;;;-3.58;100.00;101455.22;107181;1279;59200;-81
2023/03/02 03:53:58;;;;;;;61.80;22.40;;;;;;;-3.58;100.00;101453.67;107454;1278;75283;-82
2023/03/02 03:56:29;;;;;;;53.30;21.30;;;;;;;-3.59;100.00;101448.09;107453;1278;73547;-81
2023/03/02 03:59:07;;;;;;;53.20;21.00;;;;;;;-3.58;100.00;101447.17;107431;1278;71243;-82
2023/03/02 04:01:42;;;;;;;57.70;21.50;;;;;;;-3.59;100.00;101444.79;107436;1278;61743;-82
2023/03/02 04:04:12;;;;;;;56.90;21.80;;;;;;;-3.60;100.00;101448.20;107299;1278;60989;-82
2023/03/02 04:06:38;;;;;;;56.60;22.40;;;;;;;-3.58;100.00;101442.27;107482;1278;75442;-82
2023/03/02 04:09:04;;;;;;;54.70;21.60;;;;;;;-3.58;100.00;101442.96;107441;1278;59022;-82
2023/03/02 04:11:35;;;;;;;57.40;22.50;;;;;;;-3.58;100.00;101440.66;107091;1283;59199;-82
2023/03/02 04:14:01;;;;;;;63.70;22.50;;;;;;;-3.56;100.00;101441.48;107399;1278;62477;-82
2023/03/02 04:16:28;;;;;;;55.00;22.20;;;;;;;-3.51;100.00;101441.00;107073;1283;59336;-83
2023/03/02 04:18:57;;;;;;;57.00;22.90;;;;;;;-3.48;100.00;101437.70;107278;1278;59106;-82
2023/03/02 04:21:23;;;;;;;50.20;21.70;;;;;;;-3.47;100.00;101436.58;107292;1279;74408;-82
2023/03/02 04:23:48;;;;;;;58.80;22.90;;;;;;;-3.46;100.00;101436.31;107449;1278;59324;-82
2023/03/02 04:26:14;;;;;;;53.60;22.10;;;;;;;-3.48;100.00;101435.84;107262;1279;59120;-82
2023/03/02 04:28:39;;;;;;;52.60;21.00;;;;;;;-3.48;100.00;101439.32;107285;1278;59098;-81
2023/03/02 04:31:05;;;;;;;56.40;21.20;;;;;;;-3.43;100.00;101441.70;107465;1278;59421;-82
2023/03/02 04:33:31;;;;;;;50.40;21.00;;;;;;;-3.39;100.00;101440.38;107543;1278;59046;-82
2023/03/02 04:35:57;;;;;;;52.30;20.60;;;;;;;-3.35;100.00;101442.84;107451;1278;62441;-82
2023/03/02 04:38:22;;;;;;;51.30;20.30;;;;;;;-3.30;100.00;101444.70;107435;1278;59424;-82
2023/03/02 04:40:48;;;;;;;51.10;20.80;;;;;;;-3.24;100.00;101446.35;107457;1278;58982;-82
2023/03/02 04:43:13;;;;;;;54.70;20.80;;;;;;;-3.16;100.00;101441.20;107428;1278;59172;-83
2023/03/02 04:45:39;;;;;;;47.30;18.90;;;;;;;-3.07;100.00;101436.98;107051;1283;59119;-82
2023/03/02 04:48:05;;;;;;;56.40;20.60;;;;;;;-2.96;100.00;101433.95;107452;1278;60161;-80
2023/03/02 04:50:31;;;;;;;54.80;19.70;;;;;;;-2.85;100.00;101434.24;107450;1279;58992;-82
2023/03/02 04:52:56;;;;;;;48.70;20.20;;;;;;;-2.65;100.00;101433.86;107494;1278;59421;-82
2023/03/02 04:55:25;;;;;;;52.40;20.10;;;;;;;-2.52;100.00;101433.10;107167;1279;59061;-81
2023/03/02 04:57:51;;;;;;;55.10;21.00;;;;;;;-2.41;100.00;101434.11;107424;1278;62583;-82
2023/03/02 05:00:18;;;;;;;52.40;21.70;;;;;;;-2.32;100.00;101435.69;107434;1278;58999;-82
2023/03/02 05:02:44;;;;;;;47.10;18.30;;;;;;;-2.21;100.00;101439.02;107459;1278;59068;-82
2023/03/02 05:05:19;;;;;;;46.10;17.10;;;;;;;-2.06;100.00;101443.58;106996;1283;59055;-83
2023/03/02 05:07:45;;;;;;;38.40;14.20;;;;;;;-1.61;100.00;101444.80;107089;1282;73493;-83
2023/03/02 05:10:13;;;;;;;30.90;13.10;;;;;;;-0.66;100.00;101446.65;107101;1282;59140;-84
2023/03/02 05:12:56;;;;;;;29.90;11.90;;;;;;;0.39;100.00;101452.50;107067;1282;60067;-84
2023/03/02 05:15:29;;;;;;;29.20;12.20;;;;;;;1.54;100.00;101449.16;107108;1282;74869;-84
2023/03/02 05:17:55;;;;;;;24.30;11.10;;;;;;;2.61;100.00;101454.49;107116;1282;74491;-84
2023/03/02 05:20:26;;;;;;;26.30;10.50;;;;;;;3.65;100.00;101456.05;106949;1283;59052;-84
2023/03/02 05:22:54;;;;;;;29.80;11.50;;;;;;;4.79;100.00;101457.30;107066;1282;61822;-85
2023/03/02 05:25:20;;;;;;;24.60;10.90;;;;;;;5.87;100.00;101450.02;106504;1288;60097;-84
2023/03/02 05:27:46;;;;;;;26.10;11.40;;;;;;;6.81;100.00;101454.09;106625;1286;59074;-82
2023/03/02 05:30:12;;;;;;;25.20;11.70;;;;;;;7.72;100.00;101455.96;106590;1286;59301;-83
2023/03/02 05:32:38;;;;;;;26.50;11.30;;;;;;;8.54;100.00;101462.60;106587;1288;59042;-83
2023/03/02 05:35:04;;;;;;;21.20;10.80;;;;;;;9.24;100.00;101458.96;106579;1287;59041;-85
2023/03/02 05:37:29;;;;;;;22.80;10.70;;;;;;;9.82;100.00;101465.09;106568;1286;59098;-84
2023/03/02 05:39:55;;;;;;;22.70;11.10;;;;;;;10.37;99.64;101465.39;106631;1286;59134;-84
2023/03/02 05:42:21;;;;;;;24.30;11.10;;;;;;;11.20;97.18;101465.20;106631;1283;73438;-88
2023/03/02 05:44:46;;;;;;;22.90;10.80;;;;;;;11.68;88.48;101467.52;106888;1283;59078;-85
2023/03/02 05:47:12;;;;;;;17.50;9.80;;;;;;;11.87;73.24;101466.54;106916;1284;59117;-86
2023/03/02 05:49:37;;;;;;;22.30;10.60;;;;;;;12.24;74.24;101465.56;106643;1284;59612;-86
2023/03/02 05:52:03;;;;;;;22.80;11.20;;;;;;;12.91;68.14;101470.14;106862;1284;59181;-86
2023/03/02 05:54:28;;;;;;;20.40;10.30;;;;;;;13.22;64.56;101472.36;106882;1284;61099;-86
2023/03/02 05:56:54;;;;;;;19.10;10.30;;;;;;;13.21;60.45;101475.55;107259;1278;59211;-85
2023/03/02 05:59:19;;;;;;;17.30;9.70;;;;;;;13.37;60.03;101476.43;107286;1279;59507;-87
2023/03/02 06:01:46;;;;;;;22.00;10.30;;;;;;;14.10;55.58;101477.00;107476;1278;59015;-87
2023/03/02 06:04:12;;;;;;;22.70;10.40;;;;;;;14.93;55.21;101473.11;107442;1279;59030;-87
2023/03/02 06:06:38;;;;;;;24.50;12.10;;;;;;;15.88;52.50;101475.94;107453;1278;59111;-87
2023/03/02 06:09:03;;;;;;;16.80;9.80;;;;;;;16.55;49.00;101474.20;107500;1278;59057;-87
2023/03/02 06:11:29;;;;;;;21.40;10.40;;;;;;;16.99;46.97;101478.11;107470;1278;59480;-87
2023/03/02 06:13:55;;;;;;;19.00;9.80;;;;;;;17.44;46.90;101478.84;107414;1278;59056;-87
2023/03/02 06:16:20;;;;;;;16.70;10.40;;;;;;;18.10;45.49;101471.80;107303;1278;59163;-88
2023/03/02 06:18:46;;;;;;;21.70;9.60;;;;;;;18.29;42.01;101474.48;107059;1279;59167;-88
2023/03/02 06:21:11;;;;;;;17.80;9.60;;;;;;;18.54;41.71;101472.61;107350;1279;59472;-88
2023/03/02 06:23:37;;;;;;;20.40;9.10;;;;;;;18.78;40.72;101468.63;107523;1278;59075;-88
2023/03/02 06:26:08;;;;;;;16.80;9.00;;;;;;;18.98;38.86;101468.25;107444;1278;61335;-88
2023/03/02 06:28:34;;;;;;;14.80;8.00;;;;;;;18.86;36.46;101468.80;107446;1278;60190;-86
2023/03/02 06:30:59;;;;;;;14.50;7.40;;;;;;;17.57;38.34;101477.61;107462;1278;59039;-86
2023/03/02 06:37:20;;;;;;;16.60;7.50;;;;;;;13.85;42.93;101488.53;102875;1289;602779;-86
2023/03/02 06:39:45;;;;;;;12.20;7.00;;;;;;;14.25;43.22;101488.42;103538;1289;60417;-85
2023/03/02 06:42:11;;;;;;;12.80;7.00;;;;;;;15.04;42.33;101492.80;103539;1291;60405;-86
2023/03/02 06:44:36;;;;;;;12.90;7.00;;;;;;;15.31;42.32;101489.82;103379;1292;60370;-86
2023/03/02 06:47:02;;;;;;;16.80;7.30;;;;;;;15.55;41.66;101490.71;106578;1288;58384;-91
2023/03/02 06:49:28;;;;;;;14.30;6.70;;;;;;;15.47;40.84;101488.80;106192;1288;557758;-89
2023/03/02 06:51:53;;;;;;;13.30;5.90;;;;;;;15.45;40.23;101488.70;106827;1284;58139;-90
2023/03/02 06:54:19;;;;;;;13.00;6.00;;;;;;;15.37;39.78;101488.30;106863;1285;58279;-90
2023/03/02 06:56:45;;;;;;;17.20;6.80;;;;;;;14.98;39.31;101485.02;106432;1289;58247;-91
2023/03/02 06:59:11;;;;;;;14.40;6.30;;;;;;;14.62;41.21;101482.73;106456;1288;58179;-88
2023/03/02 07:01:36;;;;;;;14.40;6.10;;;;;;;14.73;41.11;101478.10;106240;1289;58202;-90
2023/03/02 07:04:02;;;;;;;11.60;5.80;;;;;;;14.97;41.24;101476.44;106398;1288;74075;-91
2023/03/02 07:06:31;;;;;;;12.20;5.70;;;;;;;15.19;40.94;101475.73;106474;1288;58204;-89
2023/03/02 07:08:57;;;;;;;10.80;5.00;;;;;;;15.05;39.90;101475.04;106259;1289;73624;-90
2023/03/02 07:11:22;;;;;;;10.30;4.80;;;;;;;14.68;40.13;101475.52;106329;1291;58636;-90
2023/03/02 07:13:48;;;;;;;9.10;4.70;;;;;;;14.66;40.58;101470.41;106119;1293;58128;-90
2023/03/02 07:16:14;;;;;;;15.10;4.30;;;;;;;14.78;40.27;101476.71;106122;1292;58132;-90
2023/03/02 07:18:40;;;;;;;12.90;4.70;;;;;;;14.98;40.06;101477.20;105799;1294;58363;-89
2023/03/02 07:21:06;;;;;;;11.80;5.40;;;;;;;15.17;39.76;101478.34;106053;1293;58192;-90
2023/03/02 07:23:33;;;;;;;12.60;5.40;;;;;;;15.29;40.41;101476.23;105925;1294;58219;-89
2023/03/02 07:25:58;;;;;;;15.90;5.70;;;;;;;16.26;40.29;101472.59;105999;1294;58116;-91
2023/03/02 07:28:25;;;;;;;12.40;5.20;;;;;;;17.93;39.01;101467.51;105910;1294;58333;-90
2023/03/02 07:30:52;;;;;;;17.50;5.30;;;;;;;19.15;35.88;101464.33;106004;1294;72553;-90
2023/03/02 07:33:18;;;;;;;15.50;5.50;;;;;;;19.04;34.42;101454.98;106035;1294;61048;-90
2023/03/02 07:35:44;;;;;;;11.90;5.10;;;;;;;19.11;35.44;101453.06;106279;1289;58382;-90
2023/03/02 07:38:09;;;;;;;10.30;5.50;;;;;;;20.40;34.97;101449.83;106294;1289;58226;-90
2023/03/02 07:40:40;;;;;;;12.00;5.30;;;;;;;21.30;32.63;101452.83;106264;1289;58306;-89
2023/03/02 07:43:06;;;;;;;11.20;4.60;;;;;;;20.46;31.47;101456.17;106321;1289;72629;-90
2023/03/02 07:45:50;;;;;;;14.70;5.00;;;;;;;19.25;32.02;101460.23;106570;1285;58100;-89
2023/03/02 07:48:16;;;;;;;10.50;4.30;;;;;;;17.44;32.96;101466.73;106487;1288;58201;-88
2023/03/02 07:50:41;;;;;;;9.20;4.70;;;;;;;16.15;34.40;101469.41;106487;1289;58497;-88
2023/03/02 07:53:07;;;;;;;10.80;4.70;;;;;;;14.80;35.35;101471.36;106265;1289;58379;-87
2023/03/02 07:55:33;;;;;;;12.00;4.50;;;;;;;13.64;36.49;101471.98;106524;1287;58361;-88
2023/03/02 07:57:58;;;;;;;10.00;3.90;;;;;;;12.63;37.51;101476.94;106421;1288;58146;-88
2023/03/02 08:00:24;;;;;;;11.20;4.50;;;;;;;11.90;38.89;101474.25;106626;1288;58125;-87
2023/03/02 08:02:50;;;;;;;11.20;4.40;;;;;;;11.38;39.42;101475.75;106582;1288;74259;-87
2023/03/02 08:05:16;;;;;;;13.60;4.30;;;;;;;10.91;40.46;101471.40;106507;1288;58207;-86
2023/03/02 08:07:42;;;;;;;13.50;5.10;;;;;;;10.62;41.62;101474.73;106433;1287;58306;-86
2023/03/02 08:10:09;;;;;;;11.20;4.10;;;;;;;10.23;41.86;101477.79;106535;1288;58322;-86
2023/03/02 08:12:35;;;;;;;10.70;4.00;;;;;;;9.66;42.36;101476.98;106336;1287;58233;-85
2023/03/02 08:15:00;;;;;;;9.50;4.00;;;;;;;9.11;43.91;101479.02;106564;1287;58130;-86
2023/03/02 08:17:26;;;;;;;11.40;4.00;;;;;;;8.92;44.61;101473.52;106464;1288;58238;-88
2023/03/02 08:19:52;;;;;;;11.00;3.90;;;;;;;8.94;45.29;101469.56;106665;1284;58214;-86
2023/03/02 08:22:17;;;;;;;10.10;3.70;;;;;;;9.03;45.36;101462.58;106903;1284;72891;-86
2023/03/02 08:24:43;;;;;;;11.90;3.80;;;;;;;8.96;44.98;101464.58;106946;1285;58183;-85
2023/03/02 08:27:13;;;;;;;8.10;3.40;;;;;;;8.73;44.79;101469.20;106791;1285;58359;-86
2023/03/02 08:29:39;;;;;;;12.60;3.90;;;;;;;8.61;45.22;101466.42;106742;1285;58304;-87
2023/03/02 08:32:04;;;;;;;15.70;3.30;;;;;;;8.67;45.16;101468.29;106790;1285;58122;-86
2023/03/02 08:34:30;;;;;;;14.90;4.10;;;;;;;8.73;45.77;101466.11;106807;1285;58577;-85
2023/03/02 08:36:56;;;;;;;10.40;3.60;;;;;;;9.41;46.05;101464.83;106857;1284;58161;-86
2023/03/02 08:39:22;;;;;;;13.40;3.80;;;;;;;10.95;46.89;101461.64;106842;1285;58275;-86
2023/03/02 08:41:52;;;;;;;8.90;3.40;;;;;;;12.99;42.16;101460.13;106546;1288;58252;-86
2023/03/02 08:44:20;;;;;;;12.80;3.70;;;;;;;14.45;39.42;101446.27;106722;1286;74018;-87
2023/03/02 08:46:49;;;;;;;8.60;3.40;;;;;;;15.83;39.65;101451.11;106515;1287;73541;-87
2023/03/02 08:49:15;;;;;;;9.20;3.90;;;;;;;17.68;37.92;101446.84;106345;1289;72726;-86
2023/03/02 08:51:41;;;;;;;9.30;4.00;;;;;;;18.73;34.96;101440.87;106403;1289;58253;-87
2023/03/02 08:54:07;;;;;;;7.60;4.00;;;;;;;19.33;33.81;101436.43;106299;1289;58664;-87
2023/03/02 08:56:38;;;;;;;8.80;4.40;;;;;;;20.07;33.09;101429.33;106282;1289;58397;-89
2023/03/02 08:59:14;;;;;;;10.10;4.20;;;;;;;20.90;31.63;101429.80;106344;1289;74384;-90
2023/03/02 09:08:25;;;;;;;9.20;3.20;;;;;;;18.64;29.74;101432.05;106285;1290;58748;-86
2023/03/02 09:10:52;;;;;;;9.20;3.10;;;;;;;17.07;31.33;101431.66;106256;1290;72836;-86
2023/03/02 09:23:54;;;;;;;;;;;;;;;;;;;;;
2023/03/02 09:33:02;;;;;;;8.50;2.30;;;;;;;8.95;41.48;101447.05;106041;1294;72330;-88
2023/03/02 09:35:28;;;;;;;10.00;2.70;;;;;;;8.75;42.10;101447.07;106010;1293;58296;-86
2023/03/02 09:37:54;;;;;;;8.70;2.70;;;;;;;8.69;42.74;101439.48;105996;1293;58245;-86
2023/03/02 09:40:23;;;;;;;9.10;3.00;;;;;;;8.67;42.72;101441.70;106045;1294;58183;-86
2023/03/02 09:42:58;;;;;;;10.10;2.90;;;;;;;8.65;42.97;101439.29;105977;1293;74501;-86
2023/03/02 09:49:44;;;;;;;9.30;2.80;;;;;;;8.64;43.92;101445.71;105244;1303;58603;-84
2023/03/02 09:52:47;;;;;;;8.20;2.50;;;;;;;8.52;44.46;101441.33;104969;1305;59155;-86
2023/03/02 09:58:38;;;;;;;11.10;2.30;;;;;;;8.28;45.18;101435.65;105246;1303;72172;-86
2023/03/02 10:01:12;;;;;;;9.70;2.50;;;;;;;8.20;45.43;101440.48;105247;1300;72466;-86
2023/03/02 10:03:46;;;;;;;10.70;2.60;;;;;;;8.06;45.34;101436.66;105471;1299;58540;-86
2023/03/02 10:06:12;;;;;;;13.20;2.90;;;;;;;7.80;45.80;101438.06;105392;1300;60056;-86
2023/03/02 10:12:35;;;;;;;9.50;2.70;;;;;;;7.38;47.27;101444.11;105500;1300;73336;-90
2023/03/02 10:15:09;;;;;;;9.50;2.60;;;;;;;7.52;47.79;101439.91;105358;1301;73661;-89
2023/03/02 10:17:38;;;;;;;5.50;2.30;;;;;;;7.52;47.20;101446.40;105280;1300;59340;-87
2023/03/02 10:20:13;;;;;;;9.10;2.80;;;;;;;7.48;47.95;101443.05;105473;1300;61238;-88
2023/03/02 10:22:45;;;;;;;10.50;2.80;;;;;;;7.63;48.38;101444.62;105488;1300;72162;-85
2023/03/02 10:25:28;;;;;;;11.80;2.90;;;;;;;7.82;48.01;101443.83;105519;1294;74172;-84
2023/03/02 10:28:46;;;;;;;11.10;2.90;;;;;;;7.94;48.02;101441.77;106942;1283;72626;-86
2023/03/02 10:31:25;;;;;;;10.80;2.80;;;;;;;8.02;48.52;101437.90;106164;1292;60956;-85
2023/03/02 10:33:51;;;;;;;8.50;3.00;;;;;;;8.05;48.69;101439.90;106099;1291;61173;-85
2023/03/02 10:36:27;;;;;;;12.40;3.10;;;;;;;8.03;48.71;101435.34;106249;1291;58357;-86
2023/03/02 10:38:54;;;;;;;10.90;3.40;;;;;;;7.95;48.83;101429.39;106249;1291;74279;-85
2023/03/02 10:41:25;;;;;;;15.20;3.20;;;;;;;7.84;49.36;101436.10;106163;1292;73532;-84
2023/03/02 10:43:57;;;;;;;12.00;3.70;;;;;;;7.64;50.00;101432.56;106146;1292;60596;-84
2023/03/02 10:46:22;;;;;;;12.40;3.70;;;;;;;7.60;50.62;101436.19;106269;1291;61294;-85
2023/03/02 10:48:51;;;;;;;10.40;3.00;;;;;;;7.64;50.88;101438.63;106245;1291;58259;-84
2023/03/02 10:51:36;;;;;;;9.80;2.50;;;;;;;7.69;50.10;101443.20;106191;1291;72982;-85
2023/03/02 10:54:04;;;;;;;10.30;3.00;;;;;;;7.60;50.76;101449.75;106145;1292;73536;-86
2023/03/02 10:56:31;;;;;;;7.40;3.10;;;;;;;7.59;50.81;101445.02;106038;1294;59464;-86
2023/03/02 10:59:02;;;;;;;13.80;3.20;;;;;;;7.47;50.90;101441.23;106181;1292;60824;-86
2023/03/02 11:01:31;;;;;;;12.10;3.10;;;;;;;7.43;51.68;101440.44;106417;1285;73809;-85
2023/03/02 11:03:59;;;;;;;12.60;2.60;;;;;;;7.44;52.11;101440.02;107075;1283;74563;-86
2023/03/02 11:06:26;;;;;;;12.10;3.20;;;;;;;7.35;51.59;101438.60;107038;1283;72552;-83
2023/03/02 11:09:05;;;;;;;9.70;3.20;;;;;;;7.27;52.25;101438.01;106834;1283;60335;-84
2023/03/02 11:11:30;;;;;;;11.10;3.20;;;;;;;7.26;52.84;101440.20;106848;1283;59997;-85
2023/03/02 11:14:08;;;;;;;8.70;3.40;;;;;;;7.25;53.16;101432.52;107102;1283;58164;-85
2023/03/02 11:16:33;;;;;;;10.30;2.70;;;;;;;7.31;53.71;101435.83;107060;1283;74202;-84
2023/03/02 11:19:16;;;;;;;13.00;3.20;;;;;;;7.41;53.45;101432.38;107058;1283;58255;-86
2023/03/02 11:21:47;;;;;;;13.70;3.50;;;;;;;7.39;53.44;101437.50;107054;1283;59314;-85
2023/03/02 11:24:20;;;;;;;9.20;2.90;;;;;;;7.48;53.59;101433.73;107024;1283;61093;-85
2023/03/02 11:27:05;;;;;;;11.20;3.10;;;;;;;7.63;54.03;101433.08;107065;1283;73489;-85
2023/03/02 11:29:46;;;;;;;9.30;2.90;;;;;;;7.81;54.28;101429.32;107022;1283;71857;-84
2023/03/02 11:32:27;;;;;;;10.50;2.60;;;;;;;8.07;54.46;101430.42;107062;1283;73796;-84
2023/03/02 11:35:11;;;;;;;9.10;2.90;;;;;;;8.26;54.10;101434.11;107088;1283;60357;-83
2023/03/02 11:37:48;;;;;;;12.00;3.50;;;;;;;8.35;54.47;101428.71;107060;1283;61324;-86
2023/03/02 11:40:41;;;;;;;10.40;3.10;;;;;;;8.35;54.31;101431.48;107054;1283;74565;-85
2023/03/02 11:43:10;;;;;;;11.60;3.40;;;;;;;8.41;54.47;101432.09;107056;1283;73203;-86
2023/03/02 11:45:40;;;;;;;11.30;3.50;;;;;;;8.33;54.36;101429.44;107061;1283;73697;-83
2023/03/02 11:48:33;;;;;;;7.70;2.90;;;;;;;8.09;54.63;101438.52;106535;1282;59110;-87
2023/03/02 11:51:25;;;;;;;12.00;3.20;;;;;;;7.80;55.58;101439.46;107088;1285;60187;-85